x

North Channel East (45154) Wave Buoy

11:00am - Tue 29th Jul 2014 All times are CDT. -5 hours from GMT.

  • Sig Wave height 0.7ft
  • Peak Period 3s
  • Wind
    9mph, 11mph gusts
  • Sea Temp 65°f
  • Air Temp 60°f
  • Sea Pressure 1012mb
  • North Channel East
  • North Channel East

More Historic Weather Station data

Upgrade to MSW Pro to gain access to the past 30 days of data for over 8000 Wavebouys and Weather Stations around the globe.

Join Pro

Comparision Forecast

View Surf forecast
   
Tue 07/29 11:00am 0.7ft 3s 9 11 mph 1012mb 65f 60f
10:00am 1ft 3s 7 9 mph 1012mb 65f 59f
9:00am 1ft 3s 4 9 mph 1012.2mb 65f 59f
8:00am 1ft 3s 9 11 mph 1012.1mb 64f 58f
7:00am 1ft 3s 11 16 mph 1012mb 64f 58f
6:00am 1.3ft 3s 11 13 mph 1011.9mb 64f 59f
4:00am 1.6ft 3s 16 20 mph 1011.8mb 64f 58f
3:00am 1.6ft 4s 13 16 mph 1011.7mb 64f 59f
2:00am 1.6ft 4s 16 18 mph 1012.1mb 64f 60f
1:00am 1.6ft 4s 13 16 mph 1012.2mb 64f 59f
12:00am 1.6ft 4s 11 13 mph 1012.7mb 64f 61f
Mon 07/28 11:00pm 2ft 4s 11 13 mph 1012.9mb 64f 61f
10:00pm 2ft 4s 13 16 mph 1013mb 64f 62f
9:00pm 1.3ft 3s 16 18 mph 1013.3mb 64f 63f
8:00pm 1ft 2s 13 16 mph 1013.2mb 64f 63f
7:00pm 0.3ft 2s 13 16 mph 1013.3mb 64f 63f
6:00pm 1ft 2s 4 7 mph 1013.4mb 64f 64f
5:00pm 1ft 2s 7 9 mph 1013.6mb 64f 64f
4:00pm 1ft 2s 13 16 mph 1013.9mb 64f 63f
3:00pm 1.3ft 2s 13 16 mph 1013.9mb 64f 63f
2:00pm 1.3ft 2s 13 18 mph 1013.7mb 64f 62f
1:00pm 1.3ft 3s 16 18 mph 1013.8mb 64f 62f
11:00am 1.6ft 3s 18 20 mph 1013.9mb 64f 59f
10:00am 1.6ft 3s 16 20 mph 1013.9mb 64f 58f
9:00am 1.6ft 3s 18 22 mph 1013.7mb 64f 57f
7:00am 1.3ft 3s 13 18 mph 1013.4mb 65f 56f
6:00am 1.3ft 3s 16 20 mph 1013.2mb 64f 55f
5:00am 1.3ft 3s 13 18 mph 1012.6mb 64f 56f
3:00am 2ft 3s 18 22 mph 1011mb 64f 57f
2:00am  -   -  20
mph
1010.5mb - 58f
1:00am 1.6ft 3s 20 25 mph 1010.5mb 64f 60f
Sun 07/27 11:00pm 1.6ft 3s 20 25 mph 1009.4mb 65f 63f
10:00pm 1ft 2s 18 22 mph 1008.8mb 65f 65f
9:00pm 0.7ft 2s 13 16 mph 1008.3mb 65f 66f
8:00pm 1ft 3s 11 13 mph 1007.2mb 65f 67f
7:00pm 1ft 3s 9
mph
1006.4mb 65f 67f
6:00pm 1ft 2s 9
mph
1005.9mb 65f 67f
5:00pm 0.7ft 2s 13 18 mph 1006mb 65f 67f
4:00pm 0.7ft 2s 9 11 mph 1006.2mb 65f 66f
3:00pm 1ft 2s 11 13 mph 1006.6mb 65f 65f
2:00pm 0.7ft 2s 11 13 mph 1007mb 66f 66f
1:00pm 0.7ft 2s 7 9 mph 1006mb 66f 67f
12:00pm 0.7ft 2s 7 9 mph 1005.7mb 65f 67f
11:00am 0.7ft 2s 9 11 mph 1005.5mb 65f 66f
10:00am 1ft 2s 7 9 mph 1005.3mb 65f 66f
9:00am 1ft 2s 11 16 mph 1005.4mb 65f 65f
8:00am 1.6ft 3s 13 16 mph 1005.5mb 65f 65f
7:00am 1.3ft 4s 9 11 mph 1005.6mb 65f 65f
6:00am 2ft 4s 11 13 mph 1005.5mb 65f 65f
5:00am 2ft 3s 18 20 mph 1005.1mb 65f 63f
4:00am 1.3ft 3s 16 18 mph 1005mb 65f 63f
3:00am 1.3ft 3s 16 18 mph 1004.9mb 65f 63f
2:00am 1ft 2s 16 18 mph 1004.9mb 65f 65f
1:00am 0.7ft 2s 11 13 mph 1005mb 65f 64f
12:00am 0.3ft 2s 9 11 mph 1005.1mb 65f 64f
Sat 07/26 11:00pm 0.3ft 2s 7 9 mph 1005.7mb 65f 64f
10:00pm 0.3ft 2s 9
mph
1006mb 65f 64f
9:00pm 0.7ft 2s 7
mph
1006.4mb 65f 64f
8:00pm 1ft 2s 7 9 mph 1006.3mb 65f 64f
7:00pm 1ft 2s 9 13 mph 1006.3mb 65f 64f
6:00pm 1ft 2s 13 18 mph 1005.8mb 65f 65f
5:00pm 0.7ft 2s 13 16 mph 1005.4mb 65f 65f
4:00pm 1ft 2s 9 11 mph 1008.1mb 65f 64f
3:00pm 0.7ft 2s 9 11 mph 1007.3mb 65f 67f
2:00pm 0.7ft 2s 11 13 mph 1007.3mb 65f 67f
1:00pm 1ft 2s 7
mph
1008.3mb 65f 66f
12:00pm 1ft 2s 9 13 mph 1008.6mb 65f 66f
11:00am 1ft 2s 7 9 mph 1008.9mb 65f 66f
10:00am 1ft 2s 11 13 mph 1009.7mb 65f 65f
9:00am 1.3ft 2s 13 16 mph 1009.7mb 65f 64f
8:00am 1ft 2s 13 18 mph 1009.6mb 65f 64f
7:00am 1ft 2s 13 18 mph 1009.9mb 65f 64f
6:00am 1ft 2s 13 18 mph 1009.9mb 65f 64f
5:00am 0.7ft 2s 11 13 mph 1010.2mb 65f 64f
4:00am 0.3ft 2s 11 13 mph 1010.4mb 65f 64f
3:00am 0.3ft 3s 9
mph
1010.5mb 65f 64f
2:00am 0.3ft 3s 7
mph
1010.7mb 65f 64f
1:00am 0.7ft 3s 7
mph
1011.1mb 65f 64f
12:00am 0.7ft 2s 7
mph
1011.3mb 65f 65f
Fri 07/25 11:00pm 1ft 3s 9 11 mph 1011.4mb 65f 66f
10:00pm 1ft 3s 11 13 mph 1011.3mb 65f 66f
9:00pm 1ft 2s 11 13 mph 1011.5mb 65f 67f
8:00pm 0.7ft 2s 9 11 mph 1011.5mb 65f 67f
7:00pm 1ft 3s 9 11 mph 1011.2mb 65f 67f
6:00pm 1.3ft 3s 11 13 mph 1011.4mb 65f 67f